sensor_id;sensor_type;location;lat;lon;timestamp;temperature;humidity
78028;DHT22;74605;45.864;11.474;2023-12-29T00:02:18;4.90;77.10
78028;DHT22;74605;45.864;11.474;2023-12-29T00:04:44;4.80;77.30
78028;DHT22;74605;45.864;11.474;2023-12-29T00:07:10;4.80;77.40
78028;DHT22;74605;45.864;11.474;2023-12-29T00:09:36;5.00;77.70
78028;DHT22;74605;45.864;11.474;2023-12-29T00:12:07;4.80;77.50
78028;DHT22;74605;45.864;11.474;2023-12-29T00:14:38;4.90;77.40
78028;DHT22;74605;45.864;11.474;2023-12-29T00:17:04;4.90;77.20
78028;DHT22;74605;45.864;11.474;2023-12-29T00:19:30;5.00;77.20
78028;DHT22;74605;45.864;11.474;2023-12-29T00:21:56;4.80;77.40
78028;DHT22;74605;45.864;11.474;2023-12-29T00:24:22;4.80;76.90
78028;DHT22;74605;45.864;11.474;2023-12-29T00:26:48;4.50;76.60
78028;DHT22;74605;45.864;11.474;2023-12-29T00:29:14;4.60;76.80
78028;DHT22;74605;45.864;11.474;2023-12-29T00:31:43;4.60;77.00
78028;DHT22;74605;45.864;11.474;2023-12-29T00:34:09;4.60;77.10
78028;DHT22;74605;45.864;11.474;2023-12-29T00:36:35;4.60;76.80
78028;DHT22;74605;45.864;11.474;2023-12-29T00:39:01;4.20;76.20
78028;DHT22;74605;45.864;11.474;2023-12-29T00:41:27;3.70;77.40
78028;DHT22;74605;45.864;11.474;2023-12-29T00:43:53;4.00;77.50
78028;DHT22;74605;45.864;11.474;2023-12-29T00:46:19;3.90;77.00
78028;DHT22;74605;45.864;11.474;2023-12-29T00:48:46;3.90;77.60
78028;DHT22;74605;45.864;11.474;2023-12-29T00:51:12;3.80;77.20
78028;DHT22;74605;45.864;11.474;2023-12-29T00:53:38;4.00;77.70
78028;DHT22;74605;45.864;11.474;2023-12-29T00:56:12;4.00;77.60
78028;DHT22;74605;45.864;11.474;2023-12-29T00:58:38;3.70;78.10
78028;DHT22;74605;45.864;11.474;2023-12-29T01:01:08;3.90;77.90
78028;DHT22;74605;45.864;11.474;2023-12-29T01:03:34;4.00;77.80
78028;DHT22;74605;45.864;11.474;2023-12-29T01:06:01;4.10;77.80
78028;DHT22;74605;45.864;11.474;2023-12-29T01:08:26;4.10;77.50
78028;DHT22;74605;45.864;11.474;2023-12-29T01:10:53;3.90;77.20
78028;DHT22;74605;45.864;11.474;2023-12-29T01:13:19;3.90;77.70
78028;DHT22;74605;45.864;11.474;2023-12-29T01:15:45;3.70;77.90
78028;DHT22;74605;45.864;11.474;2023-12-29T01:18:12;3.90;78.10
78028;DHT22;74605;45.864;11.474;2023-12-29T01:20:38;4.00;78.10
78028;DHT22;74605;45.864;11.474;2023-12-29T01:23:07;3.70;78.00
78028;DHT22;74605;45.864;11.474;2023-12-29T01:25:33;3.90;77.90
78028;DHT22;74605;45.864;11.474;2023-12-29T01:27:59;4.00;77.50
78028;DHT22;74605;45.864;11.474;2023-12-29T01:30:25;3.90;77.90
78028;DHT22;74605;45.864;11.474;2023-12-29T01:32:51;3.70;77.70
78028;DHT22;74605;45.864;11.474;2023-12-29T01:35:17;3.80;77.70
78028;DHT22;74605;45.864;11.474;2023-12-29T01:37:43;3.90;77.10
78028;DHT22;74605;45.864;11.474;2023-12-29T01:40:09;3.90;77.50
78028;DHT22;74605;45.864;11.474;2023-12-29T01:42:35;3.70;77.10
78028;DHT22;74605;45.864;11.474;2023-12-29T01:45:01;3.50;76.70
78028;DHT22;74605;45.864;11.474;2023-12-29T01:47:28;3.10;76.80
78028;DHT22;74605;45.864;11.474;2023-12-29T01:49:54;3.10;77.50
78028;DHT22;74605;45.864;11.474;2023-12-29T01:52:20;3.10;77.60
78028;DHT22;74605;45.864;11.474;2023-12-29T01:54:49;2.90;76.80
78028;DHT22;74605;45.864;11.474;2023-12-29T01:57:15;3.00;77.10
78028;DHT22;74605;45.864;11.474;2023-12-29T01:59:43;3.20;76.90
78028;DHT22;74605;45.864;11.474;2023-12-29T02:02:11;3.30;77.10
78028;DHT22;74605;45.864;11.474;2023-12-29T02:04:38;3.50;76.50
78028;DHT22;74605;45.864;11.474;2023-12-29T02:07:05;3.50;76.00
78028;DHT22;74605;45.864;11.474;2023-12-29T02:09:32;3.20;76.10
78028;DHT22;74605;45.864;11.474;2023-12-29T02:11:59;3.10;76.60
78028;DHT22;74605;45.864;11.474;2023-12-29T02:14:26;3.40;76.50
78028;DHT22;74605;45.864;11.474;2023-12-29T02:22:03;2.80;76.70
78028;DHT22;74605;45.864;11.474;2023-12-29T02:24:29;2.50;76.50
78028;DHT22;74605;45.864;11.474;2023-12-29T02:32:37;2.70;76.60
78028;DHT22;74605;45.864;11.474;2023-12-29T02:35:04;2.50;76.80
78028;DHT22;74605;45.864;11.474;2023-12-29T02:37:36;2.50;77.00
78028;DHT22;74605;45.864;11.474;2023-12-29T02:40:02;2.40;76.50
78028;DHT22;74605;45.864;11.474;2023-12-29T02:42:29;2.10;76.80
78028;DHT22;74605;45.864;11.474;2023-12-29T02:44:55;2.10;77.20
78028;DHT22;74605;45.864;11.474;2023-12-29T02:47:21;2.20;76.90
78028;DHT22;74605;45.864;11.474;2023-12-29T02:49:47;2.30;77.50
78028;DHT22;74605;45.864;11.474;2023-12-29T02:52:15;2.60;78.00
78028;DHT22;74605;45.864;11.474;2023-12-29T02:54:41;2.70;77.70
78028;DHT22;74605;45.864;11.474;2023-12-29T02:57:07;3.00;77.20
78028;DHT22;74605;45.864;11.474;2023-12-29T02:59:33;2.60;76.70
78028;DHT22;74605;45.864;11.474;2023-12-29T03:01:59;2.60;77.20
78028;DHT22;74605;45.864;11.474;2023-12-29T03:04:25;2.60;77.00
78028;DHT22;74605;45.864;11.474;2023-12-29T03:06:51;2.60;77.30
78028;DHT22;74605;45.864;11.474;2023-12-29T03:09:17;2.50;76.40
78028;DHT22;74605;45.864;11.474;2023-12-29T03:11:42;2.20;76.60
78028;DHT22;74605;45.864;11.474;2023-12-29T03:14:09;2.10;77.70
78028;DHT22;74605;45.864;11.474;2023-12-29T03:16:35;1.90;76.90
78028;DHT22;74605;45.864;11.474;2023-12-29T03:19:01;2.10;77.60
78028;DHT22;74605;45.864;11.474;2023-12-29T03:21:27;2.20;77.60
78028;DHT22;74605;45.864;11.474;2023-12-29T03:23:53;2.30;77.40
78028;DHT22;74605;45.864;11.474;2023-12-29T03:26:19;2.40;77.30
78028;DHT22;74605;45.864;11.474;2023-12-29T03:28:45;2.00;77.40
78028;DHT22;74605;45.864;11.474;2023-12-29T03:31:10;2.10;77.50
78028;DHT22;74605;45.864;11.474;2023-12-29T03:33:36;2.10;77.60
78028;DHT22;74605;45.864;11.474;2023-12-29T03:36:03;2.00;77.60
78028;DHT22;74605;45.864;11.474;2023-12-29T03:38:29;2.00;77.00
78028;DHT22;74605;45.864;11.474;2023-12-29T03:40:55;1.80;77.30
78028;DHT22;74605;45.864;11.474;2023-12-29T03:43:21;1.70;77.50
78028;DHT22;74605;45.864;11.474;2023-12-29T03:45:47;1.80;77.50
78028;DHT22;74605;45.864;11.474;2023-12-29T03:48:12;1.60;77.10
78028;DHT22;74605;45.864;11.474;2023-12-29T03:50:38;1.90;77.50
78028;DHT22;74605;45.864;11.474;2023-12-29T03:53:04;2.10;77.30
78028;DHT22;74605;45.864;11.474;2023-12-29T03:55:30;2.30;77.20
78028;DHT22;74605;45.864;11.474;2023-12-29T03:57:56;2.40;77.00
78028;DHT22;74605;45.864;11.474;2023-12-29T04:00:22;2.50;76.70
78028;DHT22;74605;45.864;11.474;2023-12-29T04:02:48;2.40;76.70
78028;DHT22;74605;45.864;11.474;2023-12-29T04:05:14;2.40;77.00
78028;DHT22;74605;45.864;11.474;2023-12-29T04:07:40;2.30;76.80
78028;DHT22;74605;45.864;11.474;2023-12-29T04:10:07;2.40;77.60
78028;DHT22;74605;45.864;11.474;2023-12-29T04:12:34;2.60;77.50
78028;DHT22;74605;45.864;11.474;2023-12-29T04:15:00;2.70;77.50
78028;DHT22;74605;45.864;11.474;2023-12-29T04:17:26;2.50;77.70
78028;DHT22;74605;45.864;11.474;2023-12-29T04:19:52;2.70;78.00
78028;DHT22;74605;45.864;11.474;2023-12-29T04:22:18;2.90;77.30
78028;DHT22;74605;45.864;11.474;2023-12-29T04:24:44;2.50;76.60
78028;DHT22;74605;45.864;11.474;2023-12-29T04:27:10;2.30;76.80
78028;DHT22;74605;45.864;11.474;2023-12-29T04:29:36;2.50;77.30
78028;DHT22;74605;45.864;11.474;2023-12-29T04:32:02;2.50;76.00
78028;DHT22;74605;45.864;11.474;2023-12-29T04:34:28;1.50;76.00
78028;DHT22;74605;45.864;11.474;2023-12-29T04:36:54;1.70;76.80
78028;DHT22;74605;45.864;11.474;2023-12-29T04:39:21;1.60;76.20
78028;DHT22;74605;45.864;11.474;2023-12-29T04:41:46;1.50;77.50
78028;DHT22;74605;45.864;11.474;2023-12-29T04:44:12;1.40;76.70
78028;DHT22;74605;45.864;11.474;2023-12-29T04:46:38;1.50;77.50
78028;DHT22;74605;45.864;11.474;2023-12-29T04:49:04;1.80;77.70
78028;DHT22;74605;45.864;11.474;2023-12-29T04:51:30;1.90;77.50
78028;DHT22;74605;45.864;11.474;2023-12-29T04:53:56;1.90;77.80
78028;DHT22;74605;45.864;11.474;2023-12-29T04:56:22;2.00;77.50
78028;DHT22;74605;45.864;11.474;2023-12-29T04:58:51;2.30;77.30
78028;DHT22;74605;45.864;11.474;2023-12-29T05:01:17;2.30;77.30
78028;DHT22;74605;45.864;11.474;2023-12-29T05:03:43;2.30;77.40
78028;DHT22;74605;45.864;11.474;2023-12-29T05:06:09;2.30;77.00
78028;DHT22;74605;45.864;11.474;2023-12-29T05:08:35;2.30;77.10
78028;DHT22;74605;45.864;11.474;2023-12-29T05:11:01;2.30;76.90
78028;DHT22;74605;45.864;11.474;2023-12-29T05:13:27;2.50;77.30
78028;DHT22;74605;45.864;11.474;2023-12-29T05:15:53;2.60;77.10
78028;DHT22;74605;45.864;11.474;2023-12-29T05:18:19;2.30;76.10
78028;DHT22;74605;45.864;11.474;2023-12-29T05:20:45;2.40;76.20
78028;DHT22;74605;45.864;11.474;2023-12-29T05:23:11;1.70;75.70
78028;DHT22;74605;45.864;11.474;2023-12-29T05:25:37;1.50;76.40
78028;DHT22;74605;45.864;11.474;2023-12-29T05:28:03;1.90;76.40
78028;DHT22;74605;45.864;11.474;2023-12-29T05:30:29;1.70;76.50
78028;DHT22;74605;45.864;11.474;2023-12-29T05:32:57;1.90;76.90
78028;DHT22;74605;45.864;11.474;2023-12-29T05:35:23;2.10;76.90
78028;DHT22;74605;45.864;11.474;2023-12-29T05:37:49;2.00;76.90
78028;DHT22;74605;45.864;11.474;2023-12-29T05:40:17;2.10;77.20
78028;DHT22;74605;45.864;11.474;2023-12-29T05:42:43;2.20;77.20
78028;DHT22;74605;45.864;11.474;2023-12-29T05:45:09;2.20;77.40
78028;DHT22;74605;45.864;11.474;2023-12-29T05:47:35;2.20;77.40
78028;DHT22;74605;45.864;11.474;2023-12-29T05:50:01;2.20;77.30
78028;DHT22;74605;45.864;11.474;2023-12-29T05:52:27;2.30;76.80
78028;DHT22;74605;45.864;11.474;2023-12-29T05:54:54;2.20;76.30
78028;DHT22;74605;45.864;11.474;2023-12-29T05:57:20;2.20;76.80
78028;DHT22;74605;45.864;11.474;2023-12-29T05:59:46;2.30;77.10
78028;DHT22;74605;45.864;11.474;2023-12-29T06:02:12;2.10;76.80
78028;DHT22;74605;45.864;11.474;2023-12-29T06:04:38;2.40;76.70
78028;DHT22;74605;45.864;11.474;2023-12-29T06:07:04;1.90;76.40
78028;DHT22;74605;45.864;11.474;2023-12-29T06:09:30;1.60;76.40
78028;DHT22;74605;45.864;11.474;2023-12-29T06:11:56;1.60;76.90
78028;DHT22;74605;45.864;11.474;2023-12-29T06:14:22;1.30;76.20
78028;DHT22;74605;45.864;11.474;2023-12-29T06:16:48;1.30;76.50
78028;DHT22;74605;45.864;11.474;2023-12-29T06:19:14;1.20;77.00
78028;DHT22;74605;45.864;11.474;2023-12-29T06:21:43;1.50;77.00
78028;DHT22;74605;45.864;11.474;2023-12-29T06:24:12;1.60;77.10
78028;DHT22;74605;45.864;11.474;2023-12-29T06:26:38;1.90;76.90
78028;DHT22;74605;45.864;11.474;2023-12-29T06:29:09;1.50;76.20
78028;DHT22;74605;45.864;11.474;2023-12-29T06:31:35;1.50;76.30
78028;DHT22;74605;45.864;11.474;2023-12-29T06:34:01;1.50;77.00
78028;DHT22;74605;45.864;11.474;2023-12-29T06:36:28;1.60;76.80
78028;DHT22;74605;45.864;11.474;2023-12-29T06:38:54;1.50;76.40
78028;DHT22;74605;45.864;11.474;2023-12-29T06:41:19;1.70;77.20
78028;DHT22;74605;45.864;11.474;2023-12-29T06:43:45;1.90;77.30
78028;DHT22;74605;45.864;11.474;2023-12-29T06:46:11;1.90;77.30
78028;DHT22;74605;45.864;11.474;2023-12-29T06:48:40;2.00;77.30
78028;DHT22;74605;45.864;11.474;2023-12-29T06:51:06;2.30;77.50
78028;DHT22;74605;45.864;11.474;2023-12-29T06:53:33;2.00;76.50
78028;DHT22;74605;45.864;11.474;2023-12-29T06:55:59;2.10;76.60
78028;DHT22;74605;45.864;11.474;2023-12-29T06:58:25;2.00;76.20
78028;DHT22;74605;45.864;11.474;2023-12-29T07:00:51;1.70;76.80
78028;DHT22;74605;45.864;11.474;2023-12-29T07:03:17;1.90;76.60
78028;DHT22;74605;45.864;11.474;2023-12-29T07:05:43;2.10;76.40
78028;DHT22;74605;45.864;11.474;2023-12-29T07:08:12;2.00;77.50
78028;DHT22;74605;45.864;11.474;2023-12-29T07:10:38;2.30;76.50
78028;DHT22;74605;45.864;11.474;2023-12-29T07:13:04;2.20;76.70
78028;DHT22;74605;45.864;11.474;2023-12-29T07:15:30;2.20;77.10
78028;DHT22;74605;45.864;11.474;2023-12-29T07:17:55;2.30;77.20
78028;DHT22;74605;45.864;11.474;2023-12-29T07:20:21;2.20;77.40
78028;DHT22;74605;45.864;11.474;2023-12-29T07:22:48;2.50;77.10
78028;DHT22;74605;45.864;11.474;2023-12-29T07:25:13;2.50;77.10
78028;DHT22;74605;45.864;11.474;2023-12-29T07:27:39;2.70;76.80
78028;DHT22;74605;45.864;11.474;2023-12-29T07:30:06;2.50;76.10
78028;DHT22;74605;45.864;11.474;2023-12-29T07:32:32;2.50;76.50
78028;DHT22;74605;45.864;11.474;2023-12-29T07:34:58;2.10;76.40
78028;DHT22;74605;45.864;11.474;2023-12-29T07:37:24;1.80;77.00
78028;DHT22;74605;45.864;11.474;2023-12-29T07:39:50;1.70;76.50
78028;DHT22;74605;45.864;11.474;2023-12-29T07:42:16;1.40;76.80
78028;DHT22;74605;45.864;11.474;2023-12-29T07:44:42;1.60;77.70
78028;DHT22;74605;45.864;11.474;2023-12-29T07:47:08;1.70;78.10
78028;DHT22;74605;45.864;11.474;2023-12-29T07:49:36;1.80;77.20
78028;DHT22;74605;45.864;11.474;2023-12-29T07:52:02;2.20;77.50
78028;DHT22;74605;45.864;11.474;2023-12-29T07:54:28;2.50;76.80
78028;DHT22;74605;45.864;11.474;2023-12-29T07:56:55;2.40;77.00
78028;DHT22;74605;45.864;11.474;2023-12-29T07:59:21;2.30;76.40
78028;DHT22;74605;45.864;11.474;2023-12-29T08:01:46;1.90;76.80
78028;DHT22;74605;45.864;11.474;2023-12-29T08:04:12;2.10;77.60
78028;DHT22;74605;45.864;11.474;2023-12-29T08:06:38;2.20;77.80
78028;DHT22;74605;45.864;11.474;2023-12-29T08:09:04;2.70;78.50
78028;DHT22;74605;45.864;11.474;2023-12-29T08:11:32;3.00;77.40
78028;DHT22;74605;45.864;11.474;2023-12-29T08:13:59;3.10;77.90
78028;DHT22;74605;45.864;11.474;2023-12-29T08:16:25;3.30;77.00
78028;DHT22;74605;45.864;11.474;2023-12-29T08:18:52;3.30;77.50
78028;DHT22;74605;45.864;11.474;2023-12-29T08:21:21;3.90;76.70
78028;DHT22;74605;45.864;11.474;2023-12-29T08:23:48;3.70;77.10
78028;DHT22;74605;45.864;11.474;2023-12-29T08:26:15;3.60;77.20
78028;DHT22;74605;45.864;11.474;2023-12-29T08:28:41;3.70;77.30
78028;DHT22;74605;45.864;11.474;2023-12-29T08:31:07;3.80;77.20
78028;DHT22;74605;45.864;11.474;2023-12-29T08:33:33;4.30;77.30
78028;DHT22;74605;45.864;11.474;2023-12-29T08:36:01;4.40;76.80
78028;DHT22;74605;45.864;11.474;2023-12-29T08:38:27;4.30;76.80
78028;DHT22;74605;45.864;11.474;2023-12-29T08:40:53;4.70;76.60
78028;DHT22;74605;45.864;11.474;2023-12-29T08:43:19;4.70;76.20
78028;DHT22;74605;45.864;11.474;2023-12-29T08:45:50;5.20;76.50
78028;DHT22;74605;45.864;11.474;2023-12-29T08:48:16;5.00;75.60
78028;DHT22;74605;45.864;11.474;2023-12-29T08:50:42;5.20;75.50
78028;DHT22;74605;45.864;11.474;2023-12-29T08:53:09;5.10;76.30
78028;DHT22;74605;45.864;11.474;2023-12-29T08:55:35;5.60;75.50
78028;DHT22;74605;45.864;11.474;2023-12-29T08:58:01;5.40;76.10
78028;DHT22;74605;45.864;11.474;2023-12-29T09:00:27;5.80;75.80
78028;DHT22;74605;45.864;11.474;2023-12-29T09:02:56;6.10;75.80
78028;DHT22;74605;45.864;11.474;2023-12-29T09:05:22;6.10;74.70
78028;DHT22;74605;45.864;11.474;2023-12-29T09:07:48;6.00;75.20
78028;DHT22;74605;45.864;11.474;2023-12-29T09:10:14;6.30;75.20
78028;DHT22;74605;45.864;11.474;2023-12-29T09:12:41;6.60;74.90
78028;DHT22;74605;45.864;11.474;2023-12-29T09:15:07;6.60;74.90
78028;DHT22;74605;45.864;11.474;2023-12-29T09:17:34;6.80;74.70
78028;DHT22;74605;45.864;11.474;2023-12-29T09:20:00;6.50;75.50
78028;DHT22;74605;45.864;11.474;2023-12-29T09:22:26;6.60;76.30
78028;DHT22;74605;45.864;11.474;2023-12-29T09:24:54;6.60;74.60
78028;DHT22;74605;45.864;11.474;2023-12-29T09:27:20;6.50;75.40
78028;DHT22;74605;45.864;11.474;2023-12-29T09:29:46;6.80;74.70
78028;DHT22;74605;45.864;11.474;2023-12-29T09:32:12;6.60;76.00
78028;DHT22;74605;45.864;11.474;2023-12-29T09:34:38;6.90;75.00
78028;DHT22;74605;45.864;11.474;2023-12-29T09:37:04;7.40;74.30
78028;DHT22;74605;45.864;11.474;2023-12-29T09:39:30;7.80;73.70
78028;DHT22;74605;45.864;11.474;2023-12-29T09:41:58;8.20;73.10
78028;DHT22;74605;45.864;11.474;2023-12-29T09:44:28;8.60;72.60
78028;DHT22;74605;45.864;11.474;2023-12-29T09:46:55;8.50;72.20
78028;DHT22;74605;45.864;11.474;2023-12-29T09:49:22;9.00;72.10
78028;DHT22;74605;45.864;11.474;2023-12-29T09:51:49;9.30;71.70
78028;DHT22;74605;45.864;11.474;2023-12-29T09:54:15;9.60;70.90
78028;DHT22;74605;45.864;11.474;2023-12-29T09:56:42;9.90;70.70
78028;DHT22;74605;45.864;11.474;2023-12-29T09:59:10;10.10;71.00
78028;DHT22;74605;45.864;11.474;2023-12-29T10:01:37;10.70;70.60
78028;DHT22;74605;45.864;11.474;2023-12-29T10:04:04;10.70;69.20
78028;DHT22;74605;45.864;11.474;2023-12-29T10:06:34;11.10;68.80
78028;DHT22;74605;45.864;11.474;2023-12-29T10:09:03;11.00;68.50
78028;DHT22;74605;45.864;11.474;2023-12-29T10:11:34;11.20;67.90
78028;DHT22;74605;45.864;11.474;2023-12-29T10:14:10;11.20;68.00
78028;DHT22;74605;45.864;11.474;2023-12-29T10:16:43;11.50;67.70
78028;DHT22;74605;45.864;11.474;2023-12-29T10:19:21;11.30;67.60
78028;DHT22;74605;45.864;11.474;2023-12-29T10:22:03;11.40;68.20
78028;DHT22;74605;45.864;11.474;2023-12-29T10:24:33;11.00;67.70
78028;DHT22;74605;45.864;11.474;2023-12-29T10:27:00;11.00;68.00
78028;DHT22;74605;45.864;11.474;2023-12-29T10:29:27;11.40;67.50
78028;DHT22;74605;45.864;11.474;2023-12-29T10:31:53;11.80;67.50
78028;DHT22;74605;45.864;11.474;2023-12-29T10:34:23;12.10;67.40
78028;DHT22;74605;45.864;11.474;2023-12-29T10:36:59;12.10;67.10
78028;DHT22;74605;45.864;11.474;2023-12-29T10:39:26;12.20;67.50
78028;DHT22;74605;45.864;11.474;2023-12-29T10:42:07;11.10;67.80
78028;DHT22;74605;45.864;11.474;2023-12-29T10:44:37;10.80;68.30
78028;DHT22;74605;45.864;11.474;2023-12-29T10:47:12;10.60;68.40
78028;DHT22;74605;45.864;11.474;2023-12-29T10:49:41;10.30;68.70
78028;DHT22;74605;45.864;11.474;2023-12-29T10:52:14;9.90;69.40
78028;DHT22;74605;45.864;11.474;2023-12-29T10:54:41;9.70;69.80
78028;DHT22;74605;45.864;11.474;2023-12-29T10:57:10;9.90;69.90
78028;DHT22;74605;45.864;11.474;2023-12-29T10:59:37;10.00;69.80
78028;DHT22;74605;45.864;11.474;2023-12-29T11:02:03;9.80;70.20
78028;DHT22;74605;45.864;11.474;2023-12-29T11:04:30;9.90;70.20
78028;DHT22;74605;45.864;11.474;2023-12-29T11:06:56;9.90;70.30
78028;DHT22;74605;45.864;11.474;2023-12-29T11:09:32;9.70;70.40
78028;DHT22;74605;45.864;11.474;2023-12-29T11:12:03;9.70;70.80
78028;DHT22;74605;45.864;11.474;2023-12-29T11:14:29;9.70;70.80
78028;DHT22;74605;45.864;11.474;2023-12-29T11:16:56;9.30;71.30
78028;DHT22;74605;45.864;11.474;2023-12-29T11:19:22;9.40;71.20
78028;DHT22;74605;45.864;11.474;2023-12-29T11:21:57;9.30;71.50
78028;DHT22;74605;45.864;11.474;2023-12-29T11:24:24;9.60;71.10
78028;DHT22;74605;45.864;11.474;2023-12-29T11:26:50;9.50;71.20
78028;DHT22;74605;45.864;11.474;2023-12-29T11:29:17;9.40;71.20
78028;DHT22;74605;45.864;11.474;2023-12-29T11:31:44;9.30;71.30
78028;DHT22;74605;45.864;11.474;2023-12-29T11:34:38;9.30;71.30
78028;DHT22;74605;45.864;11.474;2023-12-29T11:42:34;9.30;71.40
78028;DHT22;74605;45.864;11.474;2023-12-29T11:45:27;9.30;71.80
78028;DHT22;74605;45.864;11.474;2023-12-29T11:47:53;9.40;71.90
78028;DHT22;74605;45.864;11.474;2023-12-29T11:50:32;9.60;71.30
78028;DHT22;74605;45.864;11.474;2023-12-29T11:52:59;9.50;71.70
78028;DHT22;74605;45.864;11.474;2023-12-29T11:55:29;9.50;71.20
78028;DHT22;74605;45.864;11.474;2023-12-29T11:57:57;9.50;71.50
78028;DHT22;74605;45.864;11.474;2023-12-29T12:00:55;9.50;72.90
78028;DHT22;74605;45.864;11.474;2023-12-29T12:03:26;9.60;71.20
78028;DHT22;74605;45.864;11.474;2023-12-29T12:05:54;9.50;71.20
78028;DHT22;74605;45.864;11.474;2023-12-29T12:08:37;9.20;71.90
78028;DHT22;74605;45.864;11.474;2023-12-29T12:13:56;9.10;71.80
78028;DHT22;74605;45.864;11.474;2023-12-29T12:16:54;9.20;71.80
78028;DHT22;74605;45.864;11.474;2023-12-29T12:19:20;9.30;71.70
78028;DHT22;74605;45.864;11.474;2023-12-29T12:21:47;9.40;71.70
78028;DHT22;74605;45.864;11.474;2023-12-29T12:24:14;9.40;71.10
78028;DHT22;74605;45.864;11.474;2023-12-29T12:26:41;9.50;72.10
78028;DHT22;74605;45.864;11.474;2023-12-29T12:29:07;9.70;71.30
78028;DHT22;74605;45.864;11.474;2023-12-29T12:31:34;9.70;71.00
78028;DHT22;74605;45.864;11.474;2023-12-29T12:34:00;9.90;71.00
78028;DHT22;74605;45.864;11.474;2023-12-29T12:36:26;10.00;70.60
78028;DHT22;74605;45.864;11.474;2023-12-29T12:38:52;10.20;70.40
78028;DHT22;74605;45.864;11.474;2023-12-29T12:41:20;10.30;70.10
78028;DHT22;74605;45.864;11.474;2023-12-29T12:44:12;10.30;70.20
78028;DHT22;74605;45.864;11.474;2023-12-29T12:49:13;10.10;70.40
78028;DHT22;74605;45.864;11.474;2023-12-29T12:51:39;9.70;70.60
78028;DHT22;74605;45.864;11.474;2023-12-29T12:54:06;9.60;71.00
78028;DHT22;74605;45.864;11.474;2023-12-29T12:56:34;9.40;71.30
78028;DHT22;74605;45.864;11.474;2023-12-29T12:59:02;9.20;71.50
78028;DHT22;74605;45.864;11.474;2023-12-29T13:01:29;9.00;71.80
78028;DHT22;74605;45.864;11.474;2023-12-29T13:03:58;9.00;72.30
78028;DHT22;74605;45.864;11.474;2023-12-29T13:06:24;9.00;71.80
78028;DHT22;74605;45.864;11.474;2023-12-29T13:08:51;9.00;72.00
78028;DHT22;74605;45.864;11.474;2023-12-29T13:11:21;9.00;71.90
78028;DHT22;74605;45.864;11.474;2023-12-29T13:13:47;9.00;72.30
78028;DHT22;74605;45.864;11.474;2023-12-29T13:16:14;9.10;72.20
78028;DHT22;74605;45.864;11.474;2023-12-29T13:18:40;9.20;71.70
78028;DHT22;74605;45.864;11.474;2023-12-29T13:21:06;9.20;71.80
78028;DHT22;74605;45.864;11.474;2023-12-29T13:23:32;9.10;71.90
78028;DHT22;74605;45.864;11.474;2023-12-29T13:26:07;8.90;72.00
78028;DHT22;74605;45.864;11.474;2023-12-29T13:28:36;8.90;72.10
78028;DHT22;74605;45.864;11.474;2023-12-29T13:31:03;8.90;72.10
78028;DHT22;74605;45.864;11.474;2023-12-29T13:36:22;8.80;72.40
78028;DHT22;74605;45.864;11.474;2023-12-29T13:38:53;8.70;72.30
78028;DHT22;74605;45.864;11.474;2023-12-29T13:41:22;8.90;72.00
78028;DHT22;74605;45.864;11.474;2023-12-29T13:43:50;8.90;72.50
78028;DHT22;74605;45.864;11.474;2023-12-29T13:46:18;8.80;72.30
78028;DHT22;74605;45.864;11.474;2023-12-29T13:48:44;8.80;72.30
78028;DHT22;74605;45.864;11.474;2023-12-29T13:51:11;8.90;72.60
78028;DHT22;74605;45.864;11.474;2023-12-29T13:53:37;9.10;73.40
78028;DHT22;74605;45.864;11.474;2023-12-29T13:56:10;8.90;72.40
78028;DHT22;74605;45.864;11.474;2023-12-29T13:58:36;8.90;72.30
78028;DHT22;74605;45.864;11.474;2023-12-29T14:01:07;8.90;74.70
78028;DHT22;74605;45.864;11.474;2023-12-29T14:03:50;9.00;72.20
78028;DHT22;74605;45.864;11.474;2023-12-29T14:06:22;8.90;72.10
78028;DHT22;74605;45.864;11.474;2023-12-29T14:08:53;9.10;72.40
78028;DHT22;74605;45.864;11.474;2023-12-29T14:11:19;8.80;72.20
78028;DHT22;74605;45.864;11.474;2023-12-29T14:13:46;8.70;72.70
78028;DHT22;74605;45.864;11.474;2023-12-29T14:16:13;8.50;73.00
78028;DHT22;74605;45.864;11.474;2023-12-29T14:21:21;8.70;72.60
78028;DHT22;74605;45.864;11.474;2023-12-29T14:26:25;8.70;73.30
78028;DHT22;74605;45.864;11.474;2023-12-29T14:29:01;8.60;72.70
78028;DHT22;74605;45.864;11.474;2023-12-29T14:31:27;8.40;73.80
78028;DHT22;74605;45.864;11.474;2023-12-29T14:33:54;8.90;74.40
78028;DHT22;74605;45.864;11.474;2023-12-29T14:36:20;8.60;72.80
78028;DHT22;74605;45.864;11.474;2023-12-29T14:38:46;8.70;73.50
78028;DHT22;74605;45.864;11.474;2023-12-29T14:41:11;8.50;73.10
78028;DHT22;74605;45.864;11.474;2023-12-29T14:43:37;8.50;73.00
78028;DHT22;74605;45.864;11.474;2023-12-29T14:46:03;8.50;73.30
78028;DHT22;74605;45.864;11.474;2023-12-29T14:48:29;8.40;73.10
78028;DHT22;74605;45.864;11.474;2023-12-29T14:50:55;8.40;73.00
78028;DHT22;74605;45.864;11.474;2023-12-29T14:53:23;8.40;73.40
78028;DHT22;74605;45.864;11.474;2023-12-29T14:55:51;8.60;73.10
78028;DHT22;74605;45.864;11.474;2023-12-29T14:58:17;8.50;73.30
78028;DHT22;74605;45.864;11.474;2023-12-29T15:00:46;8.70;77.10
78028;DHT22;74605;45.864;11.474;2023-12-29T15:03:13;8.80;73.60
78028;DHT22;74605;45.864;11.474;2023-12-29T15:05:43;8.90;75.50
78028;DHT22;74605;45.864;11.474;2023-12-29T15:08:09;8.80;72.70
78028;DHT22;74605;45.864;11.474;2023-12-29T15:10:35;8.80;73.10
78028;DHT22;74605;45.864;11.474;2023-12-29T15:13:02;8.60;73.60
78028;DHT22;74605;45.864;11.474;2023-12-29T15:15:28;8.60;73.20
78028;DHT22;74605;45.864;11.474;2023-12-29T15:17:54;8.40;72.90
78028;DHT22;74605;45.864;11.474;2023-12-29T15:20:19;8.40;73.90
78028;DHT22;74605;45.864;11.474;2023-12-29T15:22:45;8.60;73.30
78028;DHT22;74605;45.864;11.474;2023-12-29T15:25:11;8.60;73.70
78028;DHT22;74605;45.864;11.474;2023-12-29T15:27:37;8.40;73.60
78028;DHT22;74605;45.864;11.474;2023-12-29T15:30:03;8.50;73.90
78028;DHT22;74605;45.864;11.474;2023-12-29T15:32:29;8.60;73.60
78028;DHT22;74605;45.864;11.474;2023-12-29T15:34:55;8.50;72.90
78028;DHT22;74605;45.864;11.474;2023-12-29T15:37:21;8.60;73.70
78028;DHT22;74605;45.864;11.474;2023-12-29T15:39:47;8.70;74.20
78028;DHT22;74605;45.864;11.474;2023-12-29T15:42:13;8.70;73.20
78028;DHT22;74605;45.864;11.474;2023-12-29T15:44:39;8.70;73.30
78028;DHT22;74605;45.864;11.474;2023-12-29T15:47:05;8.50;73.20
78028;DHT22;74605;45.864;11.474;2023-12-29T15:49:31;8.50;73.00
78028;DHT22;74605;45.864;11.474;2023-12-29T15:51:57;8.50;73.50
78028;DHT22;74605;45.864;11.474;2023-12-29T15:54:24;8.50;72.90
78028;DHT22;74605;45.864;11.474;2023-12-29T15:56:50;8.50;73.40
78028;DHT22;74605;45.864;11.474;2023-12-29T15:59:17;8.20;73.20
78028;DHT22;74605;45.864;11.474;2023-12-29T16:01:43;8.80;74.80